sensor_id;sensor_type;location;lat;lon;timestamp;P1;durP1;ratioP1;P2;durP2;ratioP2
23394;SDS011;11870;53.084;18.206;2023-11-22T00:02:03;19.77;;;9.13;;
23394;SDS011;11870;53.084;18.206;2023-11-22T00:04:31;22.73;;;10.93;;
23394;SDS011;11870;53.084;18.206;2023-11-22T00:06:58;25.67;;;11.25;;
23394;SDS011;11870;53.084;18.206;2023-11-22T00:09:25;27.20;;;11.30;;
23394;SDS011;11870;53.084;18.206;2023-11-22T00:11:52;21.05;;;9.65;;
23394;SDS011;11870;53.084;18.206;2023-11-22T00:14:19;19.38;;;9.40;;
23394;SDS011;11870;53.084;18.206;2023-11-22T00:16:48;19.90;;;9.15;;
23394;SDS011;11870;53.084;18.206;2023-11-22T00:19:19;18.30;;;9.73;;
23394;SDS011;11870;53.084;18.206;2023-11-22T00:21:49;19.52;;;9.38;;
23394;SDS011;11870;53.084;18.206;2023-11-22T00:24:17;21.70;;;9.30;;
23394;SDS011;11870;53.084;18.206;2023-11-22T00:26:44;17.33;;;9.20;;
23394;SDS011;11870;53.084;18.206;2023-11-22T00:29:11;18.90;;;9.02;;
23394;SDS011;11870;53.084;18.206;2023-11-22T00:31:39;16.75;;;8.80;;
23394;SDS011;11870;53.084;18.206;2023-11-22T00:34:06;20.90;;;10.15;;
23394;SDS011;11870;53.084;18.206;2023-11-22T00:36:34;21.75;;;9.25;;
23394;SDS011;11870;53.084;18.206;2023-11-22T00:39:02;22.52;;;9.93;;
23394;SDS011;11870;53.084;18.206;2023-11-22T00:41:32;22.25;;;9.35;;
23394;SDS011;11870;53.084;18.206;2023-11-22T00:44:02;16.75;;;8.13;;
23394;SDS011;11870;53.084;18.206;2023-11-22T00:46:30;18.23;;;8.73;;
23394;SDS011;11870;53.084;18.206;2023-11-22T00:48:58;19.00;;;9.05;;
23394;SDS011;11870;53.084;18.206;2023-11-22T00:51:29;20.63;;;9.30;;
23394;SDS011;11870;53.084;18.206;2023-11-22T00:53:57;19.40;;;8.85;;
23394;SDS011;11870;53.084;18.206;2023-11-22T00:56:26;21.65;;;10.13;;
23394;SDS011;11870;53.084;18.206;2023-11-22T00:58:55;21.15;;;9.07;;
23394;SDS011;11870;53.084;18.206;2023-11-22T01:01:26;23.98;;;10.63;;
23394;SDS011;11870;53.084;18.206;2023-11-22T01:03:55;20.95;;;9.48;;
23394;SDS011;11870;53.084;18.206;2023-11-22T01:06:22;18.52;;;9.52;;
23394;SDS011;11870;53.084;18.206;2023-11-22T01:08:52;21.90;;;10.13;;
23394;SDS011;11870;53.084;18.206;2023-11-22T01:11:21;21.13;;;10.48;;
23394;SDS011;11870;53.084;18.206;2023-11-22T01:13:56;19.48;;;10.02;;
23394;SDS011;11870;53.084;18.206;2023-11-22T01:16:24;22.60;;;10.10;;
23394;SDS011;11870;53.084;18.206;2023-11-22T01:18:55;22.98;;;9.82;;
23394;SDS011;11870;53.084;18.206;2023-11-22T01:21:22;19.40;;;9.23;;
23394;SDS011;11870;53.084;18.206;2023-11-22T01:23:51;20.52;;;9.95;;
23394;SDS011;11870;53.084;18.206;2023-11-22T01:26:18;21.52;;;9.52;;
23394;SDS011;11870;53.084;18.206;2023-11-22T01:28:45;23.73;;;10.05;;
23394;SDS011;11870;53.084;18.206;2023-11-22T01:31:12;22.85;;;10.13;;
23394;SDS011;11870;53.084;18.206;2023-11-22T01:33:43;20.42;;;9.77;;
23394;SDS011;11870;53.084;18.206;2023-11-22T01:36:12;21.58;;;9.70;;
23394;SDS011;11870;53.084;18.206;2023-11-22T01:38:41;23.88;;;9.85;;
23394;SDS011;11870;53.084;18.206;2023-11-22T01:41:09;22.17;;;9.93;;
23394;SDS011;11870;53.084;18.206;2023-11-22T01:43:39;24.20;;;10.65;;
23394;SDS011;11870;53.084;18.206;2023-11-22T01:46:07;27.38;;;11.63;;
23394;SDS011;11870;53.084;18.206;2023-11-22T01:48:35;25.65;;;11.35;;
23394;SDS011;11870;53.084;18.206;2023-11-22T01:51:03;28.67;;;11.57;;
23394;SDS011;11870;53.084;18.206;2023-11-22T01:53:31;22.55;;;10.73;;
23394;SDS011;11870;53.084;18.206;2023-11-22T01:55:58;28.23;;;10.85;;
23394;SDS011;11870;53.084;18.206;2023-11-22T01:58:31;22.92;;;10.43;;
23394;SDS011;11870;53.084;18.206;2023-11-22T02:00:59;22.80;;;10.82;;
23394;SDS011;11870;53.084;18.206;2023-11-22T02:03:28;21.27;;;10.50;;
23394;SDS011;11870;53.084;18.206;2023-11-22T02:05:56;20.90;;;10.43;;
23394;SDS011;11870;53.084;18.206;2023-11-22T02:08:23;20.98;;;10.10;;
23394;SDS011;11870;53.084;18.206;2023-11-22T02:10:57;21.90;;;10.02;;
23394;SDS011;11870;53.084;18.206;2023-11-22T02:13:31;23.40;;;10.60;;
23394;SDS011;11870;53.084;18.206;2023-11-22T02:15:57;22.70;;;10.40;;
23394;SDS011;11870;53.084;18.206;2023-11-22T02:18:31;24.42;;;10.57;;
23394;SDS011;11870;53.084;18.206;2023-11-22T02:20:57;23.70;;;10.02;;
23394;SDS011;11870;53.084;18.206;2023-11-22T02:23:30;23.23;;;10.25;;
23394;SDS011;11870;53.084;18.206;2023-11-22T02:25:59;21.33;;;9.98;;
23394;SDS011;11870;53.084;18.206;2023-11-22T02:28:27;25.95;;;10.43;;
23394;SDS011;11870;53.084;18.206;2023-11-22T02:30:58;22.10;;;10.20;;
23394;SDS011;11870;53.084;18.206;2023-11-22T02:33:30;22.13;;;10.55;;
23394;SDS011;11870;53.084;18.206;2023-11-22T02:35:58;22.00;;;10.45;;
23394;SDS011;11870;53.084;18.206;2023-11-22T02:38:24;27.23;;;10.63;;
23394;SDS011;11870;53.084;18.206;2023-11-22T02:40:55;24.55;;;10.27;;
23394;SDS011;11870;53.084;18.206;2023-11-22T02:43:24;21.63;;;10.52;;
23394;SDS011;11870;53.084;18.206;2023-11-22T02:45:51;25.73;;;10.30;;
23394;SDS011;11870;53.084;18.206;2023-11-22T02:48:18;23.27;;;10.05;;
23394;SDS011;11870;53.084;18.206;2023-11-22T02:50:44;23.58;;;10.77;;
23394;SDS011;11870;53.084;18.206;2023-11-22T02:53:12;23.98;;;11.23;;
23394;SDS011;11870;53.084;18.206;2023-11-22T02:55:45;27.85;;;11.27;;
23394;SDS011;11870;53.084;18.206;2023-11-22T02:58:12;26.27;;;11.68;;
23394;SDS011;11870;53.084;18.206;2023-11-22T03:00:42;238.57;;;80.40;;
23394;SDS011;11870;53.084;18.206;2023-11-22T03:03:09;33.58;;;14.48;;
23394;SDS011;11870;53.084;18.206;2023-11-22T03:05:38;26.52;;;12.07;;
23394;SDS011;11870;53.084;18.206;2023-11-22T03:08:11;29.98;;;11.65;;
23394;SDS011;11870;53.084;18.206;2023-11-22T03:10:45;22.00;;;10.73;;
23394;SDS011;11870;53.084;18.206;2023-11-22T03:13:13;22.90;;;10.30;;
23394;SDS011;11870;53.084;18.206;2023-11-22T03:15:43;24.10;;;10.82;;
23394;SDS011;11870;53.084;18.206;2023-11-22T03:18:10;24.83;;;11.25;;
23394;SDS011;11870;53.084;18.206;2023-11-22T03:20:37;26.50;;;11.73;;
23394;SDS011;11870;53.084;18.206;2023-11-22T03:23:10;24.60;;;11.63;;
23394;SDS011;11870;53.084;18.206;2023-11-22T03:25:36;24.42;;;11.65;;
23394;SDS011;11870;53.084;18.206;2023-11-22T03:28:04;24.27;;;11.60;;
23394;SDS011;11870;53.084;18.206;2023-11-22T03:30:31;25.98;;;12.52;;
23394;SDS011;11870;53.084;18.206;2023-11-22T03:33:02;29.70;;;12.38;;
23394;SDS011;11870;53.084;18.206;2023-11-22T03:35:28;25.13;;;11.98;;
23394;SDS011;11870;53.084;18.206;2023-11-22T03:37:57;27.30;;;11.40;;
23394;SDS011;11870;53.084;18.206;2023-11-22T03:40:27;25.35;;;11.48;;
23394;SDS011;11870;53.084;18.206;2023-11-22T03:42:54;25.52;;;11.57;;
23394;SDS011;11870;53.084;18.206;2023-11-22T03:45:23;28.05;;;11.68;;
23394;SDS011;11870;53.084;18.206;2023-11-22T03:47:55;27.95;;;11.55;;
23394;SDS011;11870;53.084;18.206;2023-11-22T03:50:24;32.72;;;12.82;;
23394;SDS011;11870;53.084;18.206;2023-11-22T03:52:51;25.63;;;11.63;;
23394;SDS011;11870;53.084;18.206;2023-11-22T03:55:20;24.95;;;11.43;;
23394;SDS011;11870;53.084;18.206;2023-11-22T03:57:47;24.65;;;11.88;;
23394;SDS011;11870;53.084;18.206;2023-11-22T04:00:17;28.33;;;11.52;;
23394;SDS011;11870;53.084;18.206;2023-11-22T04:02:49;25.13;;;11.48;;
23394;SDS011;11870;53.084;18.206;2023-11-22T04:05:27;26.20;;;11.38;;
23394;SDS011;11870;53.084;18.206;2023-11-22T04:07:54;25.85;;;11.80;;
23394;SDS011;11870;53.084;18.206;2023-11-22T04:10:23;26.77;;;11.85;;
23394;SDS011;11870;53.084;18.206;2023-11-22T04:12:52;26.50;;;11.50;;
23394;SDS011;11870;53.084;18.206;2023-11-22T04:15:19;26.45;;;10.57;;
23394;SDS011;11870;53.084;18.206;2023-11-22T04:17:46;26.05;;;11.65;;
23394;SDS011;11870;53.084;18.206;2023-11-22T04:20:25;24.25;;;10.55;;
23394;SDS011;11870;53.084;18.206;2023-11-22T04:22:52;21.60;;;10.35;;
23394;SDS011;11870;53.084;18.206;2023-11-22T04:25:19;28.10;;;12.05;;
23394;SDS011;11870;53.084;18.206;2023-11-22T04:27:50;28.15;;;11.57;;
23394;SDS011;11870;53.084;18.206;2023-11-22T04:30:17;28.23;;;12.43;;
23394;SDS011;11870;53.084;18.206;2023-11-22T04:32:44;32.95;;;12.90;;
23394;SDS011;11870;53.084;18.206;2023-11-22T04:35:13;29.95;;;12.70;;
23394;SDS011;11870;53.084;18.206;2023-11-22T04:37:53;27.60;;;11.80;;
23394;SDS011;11870;53.084;18.206;2023-11-22T04:40:27;27.35;;;12.02;;
23394;SDS011;11870;53.084;18.206;2023-11-22T04:43:14;25.90;;;11.95;;
23394;SDS011;11870;53.084;18.206;2023-11-22T04:45:52;28.85;;;14.00;;
23394;SDS011;11870;53.084;18.206;2023-11-22T04:48:32;32.50;;;12.15;;
23394;SDS011;11870;53.084;18.206;2023-11-22T04:51:00;29.38;;;12.25;;
23394;SDS011;11870;53.084;18.206;2023-11-22T04:53:37;27.70;;;11.88;;
23394;SDS011;11870;53.084;18.206;2023-11-22T04:56:10;31.08;;;13.23;;
23394;SDS011;11870;53.084;18.206;2023-11-22T04:58:52;28.77;;;12.80;;
23394;SDS011;11870;53.084;18.206;2023-11-22T05:01:20;29.23;;;13.13;;
23394;SDS011;11870;53.084;18.206;2023-11-22T05:03:51;31.67;;;14.07;;
23394;SDS011;11870;53.084;18.206;2023-11-22T05:06:23;30.30;;;12.88;;
23394;SDS011;11870;53.084;18.206;2023-11-22T05:08:54;30.23;;;13.55;;
23394;SDS011;11870;53.084;18.206;2023-11-22T05:11:21;34.65;;;14.18;;
23394;SDS011;11870;53.084;18.206;2023-11-22T05:13:51;37.17;;;14.30;;
23394;SDS011;11870;53.084;18.206;2023-11-22T05:16:19;28.98;;;14.27;;
23394;SDS011;11870;53.084;18.206;2023-11-22T05:19:15;29.23;;;14.35;;
23394;SDS011;11870;53.084;18.206;2023-11-22T05:21:45;30.48;;;13.52;;
23394;SDS011;11870;53.084;18.206;2023-11-22T05:24:14;30.55;;;13.60;;
23394;SDS011;11870;53.084;18.206;2023-11-22T05:26:41;31.65;;;13.75;;
23394;SDS011;11870;53.084;18.206;2023-11-22T05:29:11;31.90;;;13.95;;
23394;SDS011;11870;53.084;18.206;2023-11-22T05:31:39;35.17;;;14.00;;
23394;SDS011;11870;53.084;18.206;2023-11-22T05:34:08;31.35;;;14.30;;
23394;SDS011;11870;53.084;18.206;2023-11-22T05:36:36;31.27;;;14.10;;
23394;SDS011;11870;53.084;18.206;2023-11-22T05:39:08;33.42;;;14.15;;
23394;SDS011;11870;53.084;18.206;2023-11-22T05:41:37;31.13;;;14.32;;
23394;SDS011;11870;53.084;18.206;2023-11-22T05:44:05;30.30;;;14.32;;
23394;SDS011;11870;53.084;18.206;2023-11-22T05:46:33;29.90;;;14.18;;
23394;SDS011;11870;53.084;18.206;2023-11-22T05:49:07;36.35;;;14.55;;
23394;SDS011;11870;53.084;18.206;2023-11-22T05:51:37;33.67;;;13.98;;
23394;SDS011;11870;53.084;18.206;2023-11-22T05:54:11;30.70;;;14.18;;
23394;SDS011;11870;53.084;18.206;2023-11-22T05:56:51;31.08;;;13.85;;
23394;SDS011;11870;53.084;18.206;2023-11-22T05:59:22;37.50;;;17.98;;
23394;SDS011;11870;53.084;18.206;2023-11-22T06:01:49;56.97;;;27.23;;
23394;SDS011;11870;53.084;18.206;2023-11-22T06:06:57;52.45;;;23.02;;
23394;SDS011;11870;53.084;18.206;2023-11-22T06:09:27;44.33;;;19.80;;
23394;SDS011;11870;53.084;18.206;2023-11-22T06:11:56;38.20;;;16.58;;
23394;SDS011;11870;53.084;18.206;2023-11-22T06:14:35;31.35;;;14.93;;
23394;SDS011;11870;53.084;18.206;2023-11-22T06:17:12;33.88;;;14.82;;
23394;SDS011;11870;53.084;18.206;2023-11-22T06:19:43;36.95;;;16.00;;
23394;SDS011;11870;53.084;18.206;2023-11-22T06:22:12;38.38;;;16.58;;
23394;SDS011;11870;53.084;18.206;2023-11-22T06:24:41;47.72;;;18.52;;
23394;SDS011;11870;53.084;18.206;2023-11-22T06:27:09;74.05;;;27.42;;
23394;SDS011;11870;53.084;18.206;2023-11-22T06:29:38;62.30;;;23.08;;
23394;SDS011;11870;53.084;18.206;2023-11-22T06:32:21;41.17;;;19.30;;
23394;SDS011;11870;53.084;18.206;2023-11-22T06:34:52;66.22;;;24.88;;
23394;SDS011;11870;53.084;18.206;2023-11-22T06:37:20;87.57;;;29.90;;
23394;SDS011;11870;53.084;18.206;2023-11-22T06:39:47;87.13;;;31.67;;
23394;SDS011;11870;53.084;18.206;2023-11-22T06:42:24;90.07;;;30.65;;
23394;SDS011;11870;53.084;18.206;2023-11-22T06:44:53;80.47;;;29.23;;
23394;SDS011;11870;53.084;18.206;2023-11-22T06:47:27;95.35;;;34.20;;
23394;SDS011;11870;53.084;18.206;2023-11-22T06:50:04;110.80;;;37.88;;
23394;SDS011;11870;53.084;18.206;2023-11-22T06:52:41;89.05;;;31.63;;
23394;SDS011;11870;53.084;18.206;2023-11-22T06:55:09;80.90;;;29.92;;
23394;SDS011;11870;53.084;18.206;2023-11-22T06:57:59;81.90;;;31.02;;
23394;SDS011;11870;53.084;18.206;2023-11-22T07:00:32;88.35;;;33.88;;
23394;SDS011;11870;53.084;18.206;2023-11-22T07:03:07;91.22;;;35.88;;
23394;SDS011;11870;53.084;18.206;2023-11-22T07:05:59;105.30;;;36.92;;
23394;SDS011;11870;53.084;18.206;2023-11-22T07:08:44;128.05;;;47.35;;
23394;SDS011;11870;53.084;18.206;2023-11-22T07:11:26;104.20;;;38.33;;
23394;SDS011;11870;53.084;18.206;2023-11-22T07:14:27;90.28;;;36.88;;
23394;SDS011;11870;53.084;18.206;2023-11-22T07:17:24;86.25;;;34.70;;
23394;SDS011;11870;53.084;18.206;2023-11-22T07:20:07;83.65;;;35.15;;
23394;SDS011;11870;53.084;18.206;2023-11-22T07:22:53;87.75;;;36.50;;
23394;SDS011;11870;53.084;18.206;2023-11-22T07:25:25;89.10;;;35.33;;
23394;SDS011;11870;53.084;18.206;2023-11-22T07:28:13;77.47;;;30.83;;
23394;SDS011;11870;53.084;18.206;2023-11-22T07:30:49;71.68;;;30.02;;
23394;SDS011;11870;53.084;18.206;2023-11-22T07:33:22;74.03;;;31.38;;
23394;SDS011;11870;53.084;18.206;2023-11-22T07:39:10;82.75;;;32.63;;
23394;SDS011;11870;53.084;18.206;2023-11-22T07:42:21;78.78;;;31.05;;
23394;SDS011;11870;53.084;18.206;2023-11-22T07:45:21;95.20;;;36.75;;
23394;SDS011;11870;53.084;18.206;2023-11-22T07:47:55;126.75;;;45.25;;
23394;SDS011;11870;53.084;18.206;2023-11-22T07:50:27;220.93;;;44.05;;
23394;SDS011;11870;53.084;18.206;2023-11-22T07:52:58;93.10;;;38.20;;
23394;SDS011;11870;53.084;18.206;2023-11-22T07:55:26;149.27;;;41.20;;
23394;SDS011;11870;53.084;18.206;2023-11-22T07:57:54;81.65;;;34.10;;
23394;SDS011;11870;53.084;18.206;2023-11-22T08:00:22;75.85;;;32.78;;
23394;SDS011;11870;53.084;18.206;2023-11-22T08:02:49;75.07;;;35.03;;
23394;SDS011;11870;53.084;18.206;2023-11-22T08:05:16;67.43;;;31.77;;
23394;SDS011;11870;53.084;18.206;2023-11-22T08:07:43;66.25;;;29.23;;
23394;SDS011;11870;53.084;18.206;2023-11-22T08:10:11;55.42;;;28.00;;
23394;SDS011;11870;53.084;18.206;2023-11-22T08:12:44;47.30;;;23.60;;
23394;SDS011;11870;53.084;18.206;2023-11-22T08:15:13;55.38;;;25.77;;
23394;SDS011;11870;53.084;18.206;2023-11-22T08:17:42;51.92;;;22.90;;
23394;SDS011;11870;53.084;18.206;2023-11-22T08:20:09;41.35;;;21.25;;
23394;SDS011;11870;53.084;18.206;2023-11-22T08:22:46;36.60;;;19.15;;
23394;SDS011;11870;53.084;18.206;2023-11-22T08:25:16;33.25;;;18.20;;
23394;SDS011;11870;53.084;18.206;2023-11-22T08:27:43;49.40;;;23.73;;
23394;SDS011;11870;53.084;18.206;2023-11-22T08:30:09;45.30;;;23.60;;
23394;SDS011;11870;53.084;18.206;2023-11-22T08:32:47;41.70;;;22.88;;
23394;SDS011;11870;53.084;18.206;2023-11-22T08:35:22;38.28;;;21.85;;
23394;SDS011;11870;53.084;18.206;2023-11-22T08:37:49;44.25;;;24.75;;
23394;SDS011;11870;53.084;18.206;2023-11-22T08:40:16;31.40;;;19.42;;
23394;SDS011;11870;53.084;18.206;2023-11-22T08:42:49;44.55;;;27.88;;
23394;SDS011;11870;53.084;18.206;2023-11-22T08:45:15;36.67;;;22.60;;
23394;SDS011;11870;53.084;18.206;2023-11-22T08:47:42;39.47;;;23.42;;
23394;SDS011;11870;53.084;18.206;2023-11-22T08:50:09;26.83;;;18.20;;
23394;SDS011;11870;53.084;18.206;2023-11-22T08:52:39;27.00;;;17.70;;
23394;SDS011;11870;53.084;18.206;2023-11-22T08:55:08;33.70;;;18.77;;
23394;SDS011;11870;53.084;18.206;2023-11-22T08:57:35;31.10;;;18.48;;
23394;SDS011;11870;53.084;18.206;2023-11-22T09:00:06;29.25;;;18.00;;
23394;SDS011;11870;53.084;18.206;2023-11-22T09:02:36;27.25;;;16.52;;
23394;SDS011;11870;53.084;18.206;2023-11-22T09:05:04;19.83;;;14.10;;
23394;SDS011;11870;53.084;18.206;2023-11-22T09:07:34;22.60;;;15.48;;
23394;SDS011;11870;53.084;18.206;2023-11-22T09:10:01;24.48;;;13.52;;
23394;SDS011;11870;53.084;18.206;2023-11-22T09:12:38;20.15;;;12.25;;
23394;SDS011;11870;53.084;18.206;2023-11-22T09:15:12;17.10;;;11.85;;
23394;SDS011;11870;53.084;18.206;2023-11-22T09:17:41;17.85;;;12.23;;
23394;SDS011;11870;53.084;18.206;2023-11-22T09:20:14;17.63;;;12.18;;
23394;SDS011;11870;53.084;18.206;2023-11-22T09:22:41;16.02;;;11.50;;
23394;SDS011;11870;53.084;18.206;2023-11-22T09:25:16;17.63;;;11.63;;
23394;SDS011;11870;53.084;18.206;2023-11-22T09:27:45;19.67;;;12.75;;
23394;SDS011;11870;53.084;18.206;2023-11-22T09:30:16;20.65;;;12.27;;
23394;SDS011;11870;53.084;18.206;2023-11-22T09:32:45;15.68;;;11.15;;
23394;SDS011;11870;53.084;18.206;2023-11-22T09:35:14;19.30;;;11.07;;
23394;SDS011;11870;53.084;18.206;2023-11-22T09:37:42;16.10;;;10.90;;
23394;SDS011;11870;53.084;18.206;2023-11-22T09:40:10;13.05;;;9.30;;
23394;SDS011;11870;53.084;18.206;2023-11-22T09:42:37;13.48;;;9.30;;
23394;SDS011;11870;53.084;18.206;2023-11-22T09:45:04;13.63;;;9.07;;
23394;SDS011;11870;53.084;18.206;2023-11-22T09:47:32;11.88;;;8.40;;
23394;SDS011;11870;53.084;18.206;2023-11-22T09:50:01;13.32;;;9.30;;
23394;SDS011;11870;53.084;18.206;2023-11-22T09:52:32;13.52;;;9.30;;
23394;SDS011;11870;53.084;18.206;2023-11-22T09:55:00;13.15;;;9.30;;
23394;SDS011;11870;53.084;18.206;2023-11-22T09:57:27;11.93;;;8.88;;
23394;SDS011;11870;53.084;18.206;2023-11-22T09:59:55;11.30;;;7.68;;
23394;SDS011;11870;53.084;18.206;2023-11-22T10:02:23;12.65;;;8.82;;
23394;SDS011;11870;53.084;18.206;2023-11-22T10:04:52;12.90;;;9.02;;
23394;SDS011;11870;53.084;18.206;2023-11-22T10:07:19;13.68;;;8.30;;
23394;SDS011;11870;53.084;18.206;2023-11-22T10:09:46;13.88;;;8.60;;
23394;SDS011;11870;53.084;18.206;2023-11-22T10:12:12;14.65;;;8.52;;
23394;SDS011;11870;53.084;18.206;2023-11-22T10:14:40;13.35;;;8.70;;
23394;SDS011;11870;53.084;18.206;2023-11-22T10:17:06;12.55;;;8.48;;
23394;SDS011;11870;53.084;18.206;2023-11-22T10:19:33;15.68;;;9.25;;
23394;SDS011;11870;53.084;18.206;2023-11-22T10:22:06;13.98;;;8.48;;
23394;SDS011;11870;53.084;18.206;2023-11-22T10:24:33;13.93;;;8.45;;
23394;SDS011;11870;53.084;18.206;2023-11-22T10:27:02;14.23;;;8.85;;
23394;SDS011;11870;53.084;18.206;2023-11-22T10:29:29;14.13;;;8.45;;
23394;SDS011;11870;53.084;18.206;2023-11-22T10:31:56;14.25;;;8.50;;
23394;SDS011;11870;53.084;18.206;2023-11-22T10:34:23;19.00;;;9.63;;
23394;SDS011;11870;53.084;18.206;2023-11-22T10:36:50;17.17;;;9.57;;
23394;SDS011;11870;53.084;18.206;2023-11-22T10:39:22;17.73;;;9.88;;
23394;SDS011;11870;53.084;18.206;2023-11-22T10:41:51;13.77;;;8.55;;
23394;SDS011;11870;53.084;18.206;2023-11-22T10:44:19;14.88;;;8.45;;
23394;SDS011;11870;53.084;18.206;2023-11-22T10:46:47;18.38;;;9.70;;
23394;SDS011;11870;53.084;18.206;2023-11-22T10:49:17;19.98;;;10.45;;
23394;SDS011;11870;53.084;18.206;2023-11-22T10:51:46;19.33;;;10.23;;
23394;SDS011;11870;53.084;18.206;2023-11-22T10:54:15;20.45;;;9.90;;
23394;SDS011;11870;53.084;18.206;2023-11-22T10:56:43;20.52;;;10.68;;
23394;SDS011;11870;53.084;18.206;2023-11-22T10:59:15;24.30;;;10.93;;
23394;SDS011;11870;53.084;18.206;2023-11-22T11:01:45;22.25;;;10.57;;
23394;SDS011;11870;53.084;18.206;2023-11-22T11:04:28;25.77;;;11.70;;
23394;SDS011;11870;53.084;18.206;2023-11-22T11:06:57;24.55;;;11.45;;
23394;SDS011;11870;53.084;18.206;2023-11-22T11:09:27;25.55;;;11.88;;
23394;SDS011;11870;53.084;18.206;2023-11-22T11:11:59;24.13;;;12.60;;
23394;SDS011;11870;53.084;18.206;2023-11-22T11:14:29;27.38;;;12.75;;
23394;SDS011;11870;53.084;18.206;2023-11-22T11:16:59;27.35;;;12.68;;
23394;SDS011;11870;53.084;18.206;2023-11-22T11:19:27;26.60;;;12.50;;
23394;SDS011;11870;53.084;18.206;2023-11-22T11:21:57;27.67;;;13.02;;
23394;SDS011;11870;53.084;18.206;2023-11-22T11:24:37;22.75;;;11.80;;
23394;SDS011;11870;53.084;18.206;2023-11-22T11:27:04;26.98;;;12.05;;
23394;SDS011;11870;53.084;18.206;2023-11-22T11:29:32;27.10;;;11.55;;
23394;SDS011;11870;53.084;18.206;2023-11-22T11:32:04;21.75;;;10.98;;
23394;SDS011;11870;53.084;18.206;2023-11-22T11:34:31;18.13;;;9.68;;
23394;SDS011;11870;53.084;18.206;2023-11-22T11:37:01;22.00;;;9.30;;
23394;SDS011;11870;53.084;18.206;2023-11-22T11:39:29;17.80;;;8.52;;
23394;SDS011;11870;53.084;18.206;2023-11-22T11:42:10;18.00;;;9.20;;
23394;SDS011;11870;53.084;18.206;2023-11-22T11:47:21;18.98;;;8.98;;
23394;SDS011;11870;53.084;18.206;2023-11-22T11:49:49;16.23;;;8.18;;
23394;SDS011;11870;53.084;18.206;2023-11-22T11:52:16;15.15;;;8.00;;
23394;SDS011;11870;53.084;18.206;2023-11-22T11:54:43;15.35;;;8.15;;
23394;SDS011;11870;53.084;18.206;2023-11-22T11:57:10;19.88;;;8.77;;
23394;SDS011;11870;53.084;18.206;2023-11-22T11:59:38;17.70;;;8.35;;
23394;SDS011;11870;53.084;18.206;2023-11-22T12:02:06;14.25;;;7.78;;
23394;SDS011;11870;53.084;18.206;2023-11-22T12:04:34;19.65;;;9.20;;
23394;SDS011;11870;53.084;18.206;2023-11-22T12:07:07;16.00;;;8.13;;
23394;SDS011;11870;53.084;18.206;2023-11-22T12:09:34;16.85;;;8.80;;
23394;SDS011;11870;53.084;18.206;2023-11-22T12:12:01;17.17;;;8.75;;
23394;SDS011;11870;53.084;18.206;2023-11-22T12:14:33;17.08;;;8.23;;
23394;SDS011;11870;53.084;18.206;2023-11-22T12:17:13;16.70;;;8.23;;
23394;SDS011;11870;53.084;18.206;2023-11-22T12:19:51;17.02;;;8.55;;
23394;SDS011;11870;53.084;18.206;2023-11-22T12:22:21;18.70;;;9.35;;
23394;SDS011;11870;53.084;18.206;2023-11-22T12:24:47;16.23;;;7.95;;
23394;SDS011;11870;53.084;18.206;2023-11-22T12:27:14;17.88;;;8.45;;
23394;SDS011;11870;53.084;18.206;2023-11-22T12:29:41;16.15;;;8.55;;
23394;SDS011;11870;53.084;18.206;2023-11-22T12:32:10;18.58;;;8.40;;
23394;SDS011;11870;53.084;18.206;2023-11-22T12:34:42;23.48;;;9.57;;
23394;SDS011;11870;53.084;18.206;2023-11-22T12:37:10;19.75;;;9.98;;
23394;SDS011;11870;53.084;18.206;2023-11-22T12:39:36;26.13;;;12.85;;
23394;SDS011;11870;53.084;18.206;2023-11-22T12:42:05;22.15;;;10.88;;
23394;SDS011;11870;53.084;18.206;2023-11-22T12:44:49;21.73;;;10.80;;
23394;SDS011;11870;53.084;18.206;2023-11-22T12:47:33;20.27;;;10.15;;
23394;SDS011;11870;53.084;18.206;2023-11-22T12:50:03;22.20;;;9.93;;
23394;SDS011;11870;53.084;18.206;2023-11-22T12:52:31;23.45;;;9.73;;
23394;SDS011;11870;53.084;18.206;2023-11-22T12:54:58;21.50;;;10.02;;
23394;SDS011;11870;53.084;18.206;2023-11-22T12:57:31;21.30;;;9.88;;
23394;SDS011;11870;53.084;18.206;2023-11-22T12:59:58;20.58;;;9.63;;
23394;SDS011;11870;53.084;18.206;2023-11-22T13:02:25;19.60;;;9.75;;
23394;SDS011;11870;53.084;18.206;2023-11-22T13:04:51;19.75;;;9.50;;
23394;SDS011;11870;53.084;18.206;2023-11-22T13:07:18;19.52;;;10.38;;
23394;SDS011;11870;53.084;18.206;2023-11-22T13:09:45;22.00;;;10.27;;
23394;SDS011;11870;53.084;18.206;2023-11-22T13:12:12;22.02;;;10.75;;
23394;SDS011;11870;53.084;18.206;2023-11-22T13:14:38;20.85;;;10.10;;
23394;SDS011;11870;53.084;18.206;2023-11-22T13:17:05;19.92;;;9.57;;
23394;SDS011;11870;53.084;18.206;2023-11-22T13:19:32;23.70;;;10.60;;
23394;SDS011;11870;53.084;18.206;2023-11-22T13:21:59;22.42;;;10.27;;
23394;SDS011;11870;53.084;18.206;2023-11-22T13:24:25;20.80;;;10.20;;
23394;SDS011;11870;53.084;18.206;2023-11-22T13:26:52;21.10;;;9.73;;
23394;SDS011;11870;53.084;18.206;2023-11-22T13:29:19;21.80;;;10.32;;
23394;SDS011;11870;53.084;18.206;2023-11-22T13:31:46;20.70;;;9.63;;
23394;SDS011;11870;53.084;18.206;2023-11-22T13:34:12;19.63;;;9.82;;
23394;SDS011;11870;53.084;18.206;2023-11-22T13:36:39;19.15;;;8.68;;
23394;SDS011;11870;53.084;18.206;2023-11-22T13:39:06;20.40;;;8.95;;
23394;SDS011;11870;53.084;18.206;2023-11-22T13:41:33;21.73;;;9.32;;
23394;SDS011;11870;53.084;18.206;2023-11-22T13:43:59;22.48;;;9.07;;
23394;SDS011;11870;53.084;18.206;2023-11-22T13:46:27;21.00;;;9.43;;
23394;SDS011;11870;53.084;18.206;2023-11-22T13:48:54;20.33;;;8.85;;
23394;SDS011;11870;53.084;18.206;2023-11-22T13:51:21;19.08;;;8.18;;
23394;SDS011;11870;53.084;18.206;2023-11-22T13:53:49;21.33;;;9.73;;
23394;SDS011;11870;53.084;18.206;2023-11-22T13:56:20;23.33;;;10.00;;
23394;SDS011;11870;53.084;18.206;2023-11-22T13:58:47;18.23;;;9.40;;
23394;SDS011;11870;53.084;18.206;2023-11-22T14:01:13;19.98;;;9.32;;
23394;SDS011;11870;53.084;18.206;2023-11-22T14:03:46;19.83;;;9.88;;
23394;SDS011;11870;53.084;18.206;2023-11-22T14:06:13;20.23;;;9.85;;
23394;SDS011;11870;53.084;18.206;2023-11-22T14:08:42;24.75;;;11.18;;
23394;SDS011;11870;53.084;18.206;2023-11-22T14:11:10;19.77;;;9.93;;
23394;SDS011;11870;53.084;18.206;2023-11-22T14:13:40;21.63;;;10.73;;
23394;SDS011;11870;53.084;18.206;2023-11-22T14:16:08;19.88;;;10.77;;
23394;SDS011;11870;53.084;18.206;2023-11-22T14:18:35;20.77;;;10.88;;
23394;SDS011;11870;53.084;18.206;2023-11-22T14:21:01;23.60;;;10.35;;
23394;SDS011;11870;53.084;18.206;2023-11-22T14:23:28;26.23;;;11.13;;
23394;SDS011;11870;53.084;18.206;2023-11-22T14:25:55;22.63;;;11.23;;
23394;SDS011;11870;53.084;18.206;2023-11-22T14:28:22;28.40;;;12.15;;
23394;SDS011;11870;53.084;18.206;2023-11-22T14:30:49;28.98;;;13.00;;
23394;SDS011;11870;53.084;18.206;2023-11-22T14:33:21;29.88;;;12.27;;
23394;SDS011;11870;53.084;18.206;2023-11-22T14:35:49;30.85;;;13.05;;
23394;SDS011;11870;53.084;18.206;2023-11-22T14:38:20;28.70;;;14.35;;
23394;SDS011;11870;53.084;18.206;2023-11-22T14:44:26;31.67;;;14.40;;